Caleb J. Eymard — WDC8180 — position and weather

sailwx.info

Track history (hours):
 
Tides and Currents Weather Stations Pressure Air Temp Water Temp Dewpoint Dewpoint Depression Visibility Wind Speed Wind Dir Waves Ship Positions

Caleb J. Eymard

Owner: Eymard Brothers Towing Company, Inc., Marrero, LA. More information available from US FCC via Universal Licensing System and Coast Guard Vessel Documentation Center.

Last reported at 2017-Dec-15 20:49 UTC. Time now 2017-Dec-16 12:46 UTC.
Position N 29°43' W 094°56'.

Length 20 m; draft 3 m.

Type: Towing. MMSI: 367082880.

Date/timePositionNaut miles runAvg speedWind from/ knotsBaromVisibWave heightAir tempDewpointWater temp
2017-Dec-15 20:49N 29°43' W 094°56'1 3.2
2017-Dec-15 20:22N 29°42' W 094°55'1 0.9
2017-Dec-15 19:46N 29°42' W 094°56'1 3.1
2017-Dec-15 19:28N 29°43' W 094°56'0 0.2
2017-Dec-15 17:03N 29°43' W 094°57'1 3.8
2017-Dec-15 16:54N 29°43' W 094°56'0 0.5
2017-Dec-15 16:30N 29°43' W 094°56'1 1.7
2017-Dec-15 15:59N 29°42' W 094°56'1 1.3
2017-Dec-15 15:29N 29°42' W 094°55'2 0.2
2017-Dec-15 06:23N 29°43' W 094°57'1 3.4
2017-Dec-15 05:59N 29°42' W 094°56'1 1.4
2017-Dec-15 05:30N 29°42' W 094°55'0 0.3
2017-Dec-15 04:56N 29°42' W 094°55'0 0.0
2017-Dec-15 04:27N 29°42' W 094°55'0 0.0
2017-Dec-15 04:00N 29°42' W 094°55'0 0.0
2017-Dec-15 02:30N 29°42' W 094°55'2 1.5
2017-Dec-15 01:00N 29°41' W 094°58'1 1.7
2017-Dec-15 00:30N 29°41' W 094°59'1 0.1
2017-Dec-14 18:31N 29°41' W 094°59'1 1.0
2017-Dec-14 18:00N 29°41' W 094°60'0 0.0
2017-Dec-14 17:30N 29°41' W 094°60'0 0.0
2017-Dec-14 17:00N 29°41' W 094°60'0 0.0
2017-Dec-14 16:30N 29°41' W 094°60'0 0.0
2017-Dec-14 16:00N 29°41' W 094°60'0 0.0
2017-Dec-14 15:00N 29°41' W 094°60'0 0.0
2017-Dec-14 14:30N 29°41' W 094°60'0 0.0
2017-Dec-14 14:00N 29°41' W 094°60'0 0.0
2017-Dec-14 13:30N 29°41' W 094°60'0 0.0
2017-Dec-14 13:00N 29°41' W 094°60'0 0.0
2017-Dec-14 12:30N 29°41' W 094°60'0 0.0
2017-Dec-14 12:00N 29°41' W 094°60'0 0.1
2017-Dec-14 11:30N 29°41' W 094°60'0 0.0
2017-Dec-14 11:00N 29°41' W 094°60'0 0.0
2017-Dec-14 10:30N 29°41' W 094°60'0 0.0
2017-Dec-14 10:00N 29°41' W 094°60'0 0.0
2017-Dec-14 09:30N 29°41' W 094°60'0 0.1
2017-Dec-14 09:00N 29°41' W 094°60'0 0.1
2017-Dec-14 08:30N 29°41' W 094°60'0 0.0
2017-Dec-14 08:00N 29°41' W 094°60'0 0.0
2017-Dec-14 07:30N 29°41' W 094°60'0 0.0
2017-Dec-14 07:00N 29°41' W 094°60'0 0.0
2017-Dec-14 06:30N 29°41' W 094°60'0 0.0
2017-Dec-14 06:00N 29°41' W 094°60'2 3.6
2017-Dec-14 05:30N 29°41' W 094°58'2 4.0
2017-Dec-14 05:00N 29°40' W 094°56'1 2.5
2017-Dec-14 04:26N 29°42' W 094°55'0 0.2
2017-Dec-14 03:56N 29°42' W 094°55'2 3.7
2017-Dec-14 03:30N 29°40' W 094°56'3 5.0
2017-Dec-14 03:00N 29°41' W 094°59'3 6.0
2017-Dec-14 02:30N 29°43' W 095°01'3 6.3
2017-Dec-14 01:58N 29°45' W 095°04'2 4.7
2017-Dec-14 01:29N 29°44' W 095°07'3 6.1
2017-Dec-14 00:55N 29°45' W 095°11'3 5.9
2017-Dec-14 00:27N 29°43' W 095°13'2 5.2
2017-Dec-14 00:00N 29°43' W 095°16'1 1.6
2017-Dec-13 23:30N 29°44' W 095°17'0 0.1
2017-Dec-13 23:00N 29°44' W 095°17'0 0.0
2017-Dec-13 17:41N 29°44' W 095°17'0 0.2
2017-Dec-13 17:29N 29°44' W 095°17'0 0.0
2017-Dec-13 16:33N 29°44' W 095°17'0 0.0
2017-Dec-13 16:25N 29°44' W 095°17'0 0.0
2017-Dec-13 15:51N 29°44' W 095°17'0 0.0
2017-Dec-13 13:43N 29°44' W 095°17'0 0.0
2017-Dec-13 13:30N 29°44' W 095°17'0 0.0
2017-Dec-13 12:19N 29°44' W 095°17'0 0.0
2017-Dec-13 11:55N 29°44' W 095°17'0 0.0
2017-Dec-13 10:54N 29°44' W 095°17'0 0.0
2017-Dec-13 10:25N 29°44' W 095°17'0 0.0
2017-Dec-13 09:59N 29°44' W 095°17'0 0.0
2017-Dec-13 09:30N 29°44' W 095°17'0 0.0
2017-Dec-13 09:00N 29°44' W 095°17'0 0.0
2017-Dec-13 08:30N 29°44' W 095°17'0 0.0
2017-Dec-13 07:59N 29°44' W 095°17'2 0.4
2017-Dec-13 03:05N 29°43' W 095°15'1 6.6
2017-Dec-13 02:57N 29°44' W 095°14'3 5.7
2017-Dec-13 02:23N 29°45' W 095°10'3 6.2
2017-Dec-13 01:54N 29°44' W 095°07'3 5.5
2017-Dec-13 01:27N 29°45' W 095°04'3 6.2
2017-Dec-13 01:00N 29°44' W 095°02'3 5.9
2017-Dec-13 00:30N 29°42' W 094°59'2 4.7
2017-Dec-13 00:00N 29°41' W 094°57'2 3.0
2017-Dec-12 23:30N 29°41' W 094°55'0 0.9
2017-Dec-12 23:01N 29°42' W 094°55'0 0.2
2017-Dec-12 22:29N 29°42' W 094°55'2 3.4
2017-Dec-12 22:00N 29°41' W 094°56'2 4.0
2017-Dec-12 21:31N 29°41' W 094°59'4 7.5
2017-Dec-12 21:01N 29°37' W 094°58'2 4.3
2017-Dec-12 20:30N 29°37' W 095°00'0 0.1
2017-Dec-12 20:00N 29°37' W 095°00'0 0.0
2017-Dec-12 19:31N 29°37' W 095°00'0 0.0
2017-Dec-12 19:01N 29°37' W 095°00'0 0.0
2017-Dec-12 18:31N 29°37' W 095°00'0 0.0
2017-Dec-12 18:01N 29°37' W 095°00'0 0.0
2017-Dec-12 17:31N 29°37' W 095°00'0 0.0
2017-Dec-12 17:00N 29°37' W 095°00'0 0.0
2017-Dec-12 16:30N 29°37' W 095°00'0 0.0
2017-Dec-12 16:01N 29°37' W 095°00'0 0.1
2017-Dec-12 15:31N 29°37' W 095°00'0 0.1
2017-Dec-12 15:01N 29°37' W 095°00'0 0.0
2017-Dec-12 14:31N 29°37' W 095°00'0 0.0
2017-Dec-12 14:01N 29°37' W 095°00'0 0.0
2017-Dec-12 13:30N 29°37' W 095°00'0 0.1
2017-Dec-12 13:01N 29°37' W 095°00'0 0.0
2017-Dec-12 12:30N 29°37' W 095°00'0 0.0
2017-Dec-12 12:00N 29°37' W 095°00'0 0.0
2017-Dec-12 11:30N 29°37' W 095°00'0 0.0
2017-Dec-12 11:00N 29°37' W 095°00'0 0.0
2017-Dec-12 10:30N 29°37' W 095°00'0 0.0
2017-Dec-12 10:00N 29°37' W 095°00'0 0.0
2017-Dec-12 09:30N 29°37' W 095°00'0 0.0
2017-Dec-12 09:00N 29°37' W 095°00'0 0.0
2017-Dec-12 08:30N 29°37' W 095°00'0 0.0
2017-Dec-12 08:00N 29°37' W 095°00'0 0.0
2017-Dec-12 07:30N 29°37' W 095°00'0 0.0
2017-Dec-12 07:00N 29°37' W 095°00'0 0.0
2017-Dec-12 06:30N 29°37' W 095°00'0 0.0
2017-Dec-12 06:00N 29°37' W 095°00'0 0.0
2017-Dec-12 05:30N 29°37' W 095°00'0 0.0
2017-Dec-12 05:00N 29°37' W 095°00'0 0.0
2017-Dec-12 04:30N 29°37' W 095°00'0 0.2
2017-Dec-12 04:00N 29°37' W 095°00'2 4.5
2017-Dec-12 03:30N 29°38' W 094°58'3 6.2
2017-Dec-12 03:00N 29°41' W 094°59'2 3.1
2017-Dec-12 02:30N 29°41' W 094°57'1 2.8
2017-Dec-12 02:00N 29°41' W 094°55'1 1.8
2017-Dec-12 01:24N 29°42' W 094°56'1 1.7
2017-Dec-12 01:00N 29°43' W 094°56'0 0.2
2017-Dec-12 00:30N 29°43' W 094°56'0 0.0
2017-Dec-12 00:00N 29°43' W 094°56'0 0.0
2017-Dec-11 23:30N 29°43' W 094°56'0 0.0
2017-Dec-11 23:00N 29°43' W 094°56'0 0.0
2017-Dec-11 22:30N 29°43' W 094°56'0 0.0
2017-Dec-11 22:00N 29°43' W 094°56'0 0.0
2017-Dec-11 21:30N 29°43' W 094°56'0 0.0
2017-Dec-11 21:00N 29°43' W 094°56'0 0.0
2017-Dec-11 20:30N 29°43' W 094°56'1 1.1
2017-Dec-11 20:00N 29°43' W 094°57'0 0.2
2017-Dec-11 18:48N 29°43' W 094°57'1 2.6
2017-Dec-11 18:29N 29°42' W 094°56'1 1.9
2017-Dec-11 17:59N 29°42' W 094°55'0 0.5
2017-Dec-11 17:27N 29°42' W 094°55'0 0.3
2017-Dec-11 17:00N 29°42' W 094°55'0 0.0
2017-Dec-11 16:29N 29°42' W 094°55'0 0.0
2017-Dec-11 15:27N 29°42' W 094°55'0 0.0
2017-Dec-11 14:59N 29°42' W 094°55'0 0.0
2017-Dec-11 14:30N 29°42' W 094°55'0 0.0
2017-Dec-11 14:00N 29°42' W 094°55'0 0.0
2017-Dec-11 13:30N 29°42' W 094°55'0 0.0
2017-Dec-11 13:00N 29°42' W 094°55'0 0.0
2017-Dec-11 12:29N 29°42' W 094°55'0 0.0
2017-Dec-11 12:00N 29°42' W 094°55'0 0.0
2017-Dec-11 11:30N 29°42' W 094°55'0 0.0
2017-Dec-11 10:59N 29°42' W 094°55'0 0.0
2017-Dec-11 10:30N 29°42' W 094°55'0 0.0
2017-Dec-11 10:00N 29°42' W 094°55'0 0.0
2017-Dec-11 09:30N 29°42' W 094°55'0 0.0
2017-Dec-11 08:59N 29°42' W 094°55'0 0.0
2017-Dec-11 08:30N 29°42' W 094°55'0 0.0
2017-Dec-11 08:00N 29°42' W 094°55'0 0.0
2017-Dec-11 07:28N 29°42' W 094°55'0 0.0
2017-Dec-11 07:00N 29°42' W 094°55'0 0.0
2017-Dec-11 06:30N 29°42' W 094°55'0 0.0
2017-Dec-11 06:00N 29°42' W 094°55'0 0.0
2017-Dec-11 05:30N 29°42' W 094°55'0 0.0
2017-Dec-11 05:00N 29°42' W 094°55'0 0.0
2017-Dec-11 04:30N 29°42' W 094°55'0 0.0
2017-Dec-11 04:00N 29°42' W 094°55'0 0.0
2017-Dec-11 03:30N 29°42' W 094°55'0 0.0
2017-Dec-11 03:00N 29°42' W 094°55'0 0.0
2017-Dec-11 02:30N 29°42' W 094°55'0 0.1
2017-Dec-11 02:00N 29°42' W 094°55'0 0.0
2017-Dec-10 20:07N 29°42' W 094°55'0 2.8
2017-Dec-10 20:00N 29°42' W 094°55'1 2.3
2017-Dec-10 19:30N 29°43' W 094°56'1 0.1
2017-Dec-10 09:22N 29°43' W 094°56'0 0.0
2017-Dec-09 00:16N 29°43' W 094°57'1 3.7
2017-Dec-09 00:00N 29°42' W 094°56'1 1.2
2017-Dec-08 23:23N 29°42' W 094°55'0 0.0
2017-Dec-08 22:59N 29°42' W 094°55'0 0.0
2017-Dec-08 22:29N 29°42' W 094°55'0 0.0
2017-Dec-08 19:45N 29°42' W 094°55'0 0.0
2017-Dec-08 19:30N 29°42' W 094°55'0 0.0
2017-Dec-08 17:53N 29°42' W 094°55'0 0.0
2017-Dec-08 16:30N 29°42' W 094°55'0 0.0
2017-Dec-08 15:28N 29°42' W 094°55'0 0.0
2017-Dec-08 10:36N 29°42' W 094°55'0 0.0
2017-Dec-08 00:22N 29°42' W 094°55'0 0.1
2017-Dec-08 00:01N 29°42' W 094°55'1 2.0
2017-Dec-07 23:30N 29°41' W 094°56'1 2.3
2017-Dec-07 22:59N 29°41' W 094°57'2 3.7
2017-Dec-07 22:31N 29°41' W 094°59'3 6.0
2017-Dec-07 22:01N 29°43' W 095°01'3 6.1
2017-Dec-07 21:30N 29°45' W 095°04'4 5.3
2017-Dec-07 20:50N 29°44' W 095°08'2 6.4
2017-Dec-07 20:27N 29°45' W 095°11'3 5.9
2017-Dec-07 19:55N 29°43' W 095°14'2 4.7
2017-Dec-07 19:30N 29°44' W 095°16'1 1.4
2017-Dec-07 18:59N 29°44' W 095°17'0 0.0
2017-Dec-07 18:29N 29°44' W 095°17'0 0.0
2017-Dec-07 17:59N 29°44' W 095°17'0 0.0
2017-Dec-07 17:31N 29°44' W 095°17'0 0.0
2017-Dec-07 17:00N 29°44' W 095°17'0 0.0
2017-Dec-07 13:53N 29°44' W 095°17'0 0.0
2017-Dec-07 13:14N 29°44' W 095°17'0 0.0
2017-Dec-07 12:58N 29°44' W 095°17'0 0.0
2017-Dec-07 12:29N 29°44' W 095°17'0 0.0
2017-Dec-07 11:58N 29°44' W 095°17'0 0.0
2017-Dec-07 11:30N 29°44' W 095°17'0 0.0
2017-Dec-07 11:00N 29°44' W 095°17'0 0.0
2017-Dec-07 10:30N 29°44' W 095°17'0 0.0
2017-Dec-07 10:00N 29°44' W 095°17'0 0.0
2017-Dec-07 09:30N 29°44' W 095°17'0 0.0
2017-Dec-07 09:00N 29°44' W 095°17'0 0.0
2017-Dec-07 08:30N 29°44' W 095°17'0 0.0
2017-Dec-07 08:00N 29°44' W 095°17'0 0.0
2017-Dec-07 07:30N 29°44' W 095°17'0 0.0
2017-Dec-07 07:00N 29°44' W 095°17'0 0.0
2017-Dec-07 06:28N 29°44' W 095°17'0 0.0
2017-Dec-07 05:57N 29°44' W 095°17'0 0.0
2017-Dec-07 05:27N 29°44' W 095°17'0 0.0
2017-Dec-07 04:31N 29°44' W 095°17'0 0.0
2017-Dec-07 04:30N 29°44' W 095°17'2 4.0
2017-Dec-07 04:00N 29°43' W 095°15'3 6.2
2017-Dec-07 03:30N 29°45' W 095°12'3 6.4
2017-Dec-07 03:00N 29°44' W 095°08'3 6.2
2017-Dec-07 02:28N 29°46' W 095°04'3 6.5
2017-Dec-07 01:57N 29°44' W 095°01'3 5.9
2017-Dec-07 01:30N 29°42' W 094°59'2 4.6
2017-Dec-07 01:00N 29°41' W 094°57'1 2.3
2017-Dec-07 00:30N 29°41' W 094°56'1 2.2
2017-Dec-07 00:00N 29°42' W 094°55'0 0.0
2017-Dec-06 23:30N 29°42' W 094°55'0 0.0
2017-Dec-06 23:00N 29°42' W 094°55'0 0.0
2017-Dec-06 22:30N 29°42' W 094°55'0 0.3
2017-Dec-06 21:54N 29°42' W 094°55'1 1.5
2017-Dec-06 21:29N 29°42' W 094°55'1 1.4
2017-Dec-06 21:00N 29°43' W 094°56'  
Track history (hours):
 
Tides and Currents Weather Stations Pressure Air Temp Water Temp Dewpoint Dewpoint Depression Visibility Wind Speed Wind Dir Waves Ship Positions

Caleb J. Eymard

Owner: Eymard Brothers Towing Company, Inc., Marrero, LA. More information available from US FCC via Universal Licensing System and Coast Guard Vessel Documentation Center.

Last reported at 2017-Dec-15 20:49 UTC. Time now 2017-Dec-16 12:46 UTC.
Position N 29°43' W 094°56'.

Length 20 m; draft 3 m.

Type: Towing. MMSI: 367082880.

Date/timePositionNaut miles runAvg speedWind from/ knotsBaromVisibWave heightAir tempDewpointWater temp
2017-Dec-15 20:49N 29°43' W 094°56'1 3.2
2017-Dec-15 20:22N 29°42' W 094°55'1 0.9
2017-Dec-15 19:46N 29°42' W 094°56'1 3.1
2017-Dec-15 19:28N 29°43' W 094°56'0 0.2
2017-Dec-15 17:03N 29°43' W 094°57'1 3.8
2017-Dec-15 16:54N 29°43' W 094°56'0 0.5
2017-Dec-15 16:30N 29°43' W 094°56'1 1.7
2017-Dec-15 15:59N 29°42' W 094°56'1 1.3
2017-Dec-15 15:29N 29°42' W 094°55'2 0.2
2017-Dec-15 06:23N 29°43' W 094°57'1 3.4
2017-Dec-15 05:59N 29°42' W 094°56'1 1.4
2017-Dec-15 05:30N 29°42' W 094°55'0 0.3
2017-Dec-15 04:56N 29°42' W 094°55'0 0.0
2017-Dec-15 04:27N 29°42' W 094°55'0 0.0
2017-Dec-15 04:00N 29°42' W 094°55'0 0.0
2017-Dec-15 02:30N 29°42' W 094°55'2 1.5
2017-Dec-15 01:00N 29°41' W 094°58'1 1.7
2017-Dec-15 00:30N 29°41' W 094°59'1 0.1
2017-Dec-14 18:31N 29°41' W 094°59'1 1.0
2017-Dec-14 18:00N 29°41' W 094°60'0 0.0
2017-Dec-14 17:30N 29°41' W 094°60'0 0.0
2017-Dec-14 17:00N 29°41' W 094°60'0 0.0
2017-Dec-14 16:30N 29°41' W 094°60'0 0.0
2017-Dec-14 16:00N 29°41' W 094°60'0 0.0
2017-Dec-14 15:00N 29°41' W 094°60'0 0.0
2017-Dec-14 14:30N 29°41' W 094°60'0 0.0
2017-Dec-14 14:00N 29°41' W 094°60'0 0.0
2017-Dec-14 13:30N 29°41' W 094°60'0 0.0
2017-Dec-14 13:00N 29°41' W 094°60'0 0.0
2017-Dec-14 12:30N 29°41' W 094°60'0 0.0
2017-Dec-14 12:00N 29°41' W 094°60'0 0.1
2017-Dec-14 11:30N 29°41' W 094°60'0 0.0
2017-Dec-14 11:00N 29°41' W 094°60'0 0.0
2017-Dec-14 10:30N 29°41' W 094°60'0 0.0
2017-Dec-14 10:00N 29°41' W 094°60'0 0.0
2017-Dec-14 09:30N 29°41' W 094°60'0 0.1
2017-Dec-14 09:00N 29°41' W 094°60'0 0.1
2017-Dec-14 08:30N 29°41' W 094°60'0 0.0
2017-Dec-14 08:00N 29°41' W 094°60'0 0.0
2017-Dec-14 07:30N 29°41' W 094°60'0 0.0
2017-Dec-14 07:00N 29°41' W 094°60'0 0.0
2017-Dec-14 06:30N 29°41' W 094°60'0 0.0
2017-Dec-14 06:00N 29°41' W 094°60'2 3.6
2017-Dec-14 05:30N 29°41' W 094°58'2 4.0
2017-Dec-14 05:00N 29°40' W 094°56'1 2.5
2017-Dec-14 04:26N 29°42' W 094°55'0 0.2
2017-Dec-14 03:56N 29°42' W 094°55'2 3.7
2017-Dec-14 03:30N 29°40' W 094°56'3 5.0
2017-Dec-14 03:00N 29°41' W 094°59'3 6.0
2017-Dec-14 02:30N 29°43' W 095°01'3 6.3
2017-Dec-14 01:58N 29°45' W 095°04'2 4.7
2017-Dec-14 01:29N 29°44' W 095°07'3 6.1
2017-Dec-14 00:55N 29°45' W 095°11'3 5.9
2017-Dec-14 00:27N 29°43' W 095°13'2 5.2
2017-Dec-14 00:00N 29°43' W 095°16'1 1.6
2017-Dec-13 23:30N 29°44' W 095°17'0 0.1
2017-Dec-13 23:00N 29°44' W 095°17'0 0.0
2017-Dec-13 17:41N 29°44' W 095°17'0 0.2
2017-Dec-13 17:29N 29°44' W 095°17'0 0.0
2017-Dec-13 16:33N 29°44' W 095°17'0 0.0
2017-Dec-13 16:25N 29°44' W 095°17'0 0.0
2017-Dec-13 15:51N 29°44' W 095°17'0 0.0
2017-Dec-13 13:43N 29°44' W 095°17'0 0.0
2017-Dec-13 13:30N 29°44' W 095°17'0 0.0
2017-Dec-13 12:19N 29°44' W 095°17'0 0.0
2017-Dec-13 11:55N 29°44' W 095°17'0 0.0
2017-Dec-13 10:54N 29°44' W 095°17'0 0.0
2017-Dec-13 10:25N 29°44' W 095°17'0 0.0
2017-Dec-13 09:59N 29°44' W 095°17'0 0.0
2017-Dec-13 09:30N 29°44' W 095°17'0 0.0
2017-Dec-13 09:00N 29°44' W 095°17'0 0.0
2017-Dec-13 08:30N 29°44' W 095°17'0 0.0
2017-Dec-13 07:59N 29°44' W 095°17'2 0.4
2017-Dec-13 03:05N 29°43' W 095°15'1 6.6
2017-Dec-13 02:57N 29°44' W 095°14'3 5.7
2017-Dec-13 02:23N 29°45' W 095°10'3 6.2
2017-Dec-13 01:54N 29°44' W 095°07'3 5.5
2017-Dec-13 01:27N 29°45' W 095°04'3 6.2
2017-Dec-13 01:00N 29°44' W 095°02'3 5.9
2017-Dec-13 00:30N 29°42' W 094°59'2 4.7
2017-Dec-13 00:00N 29°41' W 094°57'2 3.0
2017-Dec-12 23:30N 29°41' W 094°55'0 0.9
2017-Dec-12 23:01N 29°42' W 094°55'0 0.2
2017-Dec-12 22:29N 29°42' W 094°55'2 3.4
2017-Dec-12 22:00N 29°41' W 094°56'2 4.0
2017-Dec-12 21:31N 29°41' W 094°59'4 7.5
2017-Dec-12 21:01N 29°37' W 094°58'2 4.3
2017-Dec-12 20:30N 29°37' W 095°00'0 0.1
2017-Dec-12 20:00N 29°37' W 095°00'0 0.0
2017-Dec-12 19:31N 29°37' W 095°00'0 0.0
2017-Dec-12 19:01N 29°37' W 095°00'0 0.0
2017-Dec-12 18:31N 29°37' W 095°00'0 0.0
2017-Dec-12 18:01N 29°37' W 095°00'0 0.0
2017-Dec-12 17:31N 29°37' W 095°00'0 0.0
2017-Dec-12 17:00N 29°37' W 095°00'0 0.0
2017-Dec-12 16:30N 29°37' W 095°00'0 0.0
2017-Dec-12 16:01N 29°37' W 095°00'0 0.1
2017-Dec-12 15:31N 29°37' W 095°00'0 0.1
2017-Dec-12 15:01N 29°37' W 095°00'0 0.0
2017-Dec-12 14:31N 29°37' W 095°00'0 0.0
2017-Dec-12 14:01N 29°37' W 095°00'0 0.0
2017-Dec-12 13:30N 29°37' W 095°00'0 0.1
2017-Dec-12 13:01N 29°37' W 095°00'0 0.0
2017-Dec-12 12:30N 29°37' W 095°00'0 0.0
2017-Dec-12 12:00N 29°37' W 095°00'0 0.0
2017-Dec-12 11:30N 29°37' W 095°00'0 0.0
2017-Dec-12 11:00N 29°37' W 095°00'0 0.0
2017-Dec-12 10:30N 29°37' W 095°00'0 0.0
2017-Dec-12 10:00N 29°37' W 095°00'0 0.0
2017-Dec-12 09:30N 29°37' W 095°00'0 0.0
2017-Dec-12 09:00N 29°37' W 095°00'0 0.0
2017-Dec-12 08:30N 29°37' W 095°00'0 0.0
2017-Dec-12 08:00N 29°37' W 095°00'0 0.0
2017-Dec-12 07:30N 29°37' W 095°00'0 0.0
2017-Dec-12 07:00N 29°37' W 095°00'0 0.0
2017-Dec-12 06:30N 29°37' W 095°00'0 0.0
2017-Dec-12 06:00N 29°37' W 095°00'0 0.0
2017-Dec-12 05:30N 29°37' W 095°00'0 0.0
2017-Dec-12 05:00N 29°37' W 095°00'0 0.0
2017-Dec-12 04:30N 29°37' W 095°00'0 0.2
2017-Dec-12 04:00N 29°37' W 095°00'2 4.5
2017-Dec-12 03:30N 29°38' W 094°58'3 6.2
2017-Dec-12 03:00N 29°41' W 094°59'2 3.1
2017-Dec-12 02:30N 29°41' W 094°57'1 2.8
2017-Dec-12 02:00N 29°41' W 094°55'1 1.8
2017-Dec-12 01:24N 29°42' W 094°56'1 1.7
2017-Dec-12 01:00N 29°43' W 094°56'0 0.2
2017-Dec-12 00:30N 29°43' W 094°56'0 0.0
2017-Dec-12 00:00N 29°43' W 094°56'0 0.0
2017-Dec-11 23:30N 29°43' W 094°56'0 0.0
2017-Dec-11 23:00N 29°43' W 094°56'0 0.0
2017-Dec-11 22:30N 29°43' W 094°56'0 0.0
2017-Dec-11 22:00N 29°43' W 094°56'0 0.0
2017-Dec-11 21:30N 29°43' W 094°56'0 0.0
2017-Dec-11 21:00N 29°43' W 094°56'0 0.0
2017-Dec-11 20:30N 29°43' W 094°56'1 1.1
2017-Dec-11 20:00N 29°43' W 094°57'0 0.2
2017-Dec-11 18:48N 29°43' W 094°57'1 2.6
2017-Dec-11 18:29N 29°42' W 094°56'1 1.9
2017-Dec-11 17:59N 29°42' W 094°55'0 0.5
2017-Dec-11 17:27N 29°42' W 094°55'0 0.3
2017-Dec-11 17:00N 29°42' W 094°55'0 0.0
2017-Dec-11 16:29N 29°42' W 094°55'0 0.0
2017-Dec-11 15:27N 29°42' W 094°55'0 0.0
2017-Dec-11 14:59N 29°42' W 094°55'0 0.0
2017-Dec-11 14:30N 29°42' W 094°55'0 0.0
2017-Dec-11 14:00N 29°42' W 094°55'0 0.0
2017-Dec-11 13:30N 29°42' W 094°55'0 0.0
2017-Dec-11 13:00N 29°42' W 094°55'0 0.0
2017-Dec-11 12:29N 29°42' W 094°55'0 0.0
2017-Dec-11 12:00N 29°42' W 094°55'0 0.0
2017-Dec-11 11:30N 29°42' W 094°55'0 0.0
2017-Dec-11 10:59N 29°42' W 094°55'0 0.0
2017-Dec-11 10:30N 29°42' W 094°55'0 0.0
2017-Dec-11 10:00N 29°42' W 094°55'0 0.0
2017-Dec-11 09:30N 29°42' W 094°55'0 0.0
2017-Dec-11 08:59N 29°42' W 094°55'0 0.0
2017-Dec-11 08:30N 29°42' W 094°55'0 0.0
2017-Dec-11 08:00N 29°42' W 094°55'0 0.0
2017-Dec-11 07:28N 29°42' W 094°55'0 0.0
2017-Dec-11 07:00N 29°42' W 094°55'0 0.0
2017-Dec-11 06:30N 29°42' W 094°55'0 0.0
2017-Dec-11 06:00N 29°42' W 094°55'0 0.0
2017-Dec-11 05:30N 29°42' W 094°55'0 0.0
2017-Dec-11 05:00N 29°42' W 094°55'0 0.0
2017-Dec-11 04:30N 29°42' W 094°55'0 0.0
2017-Dec-11 04:00N 29°42' W 094°55'0 0.0
2017-Dec-11 03:30N 29°42' W 094°55'0 0.0
2017-Dec-11 03:00N 29°42' W 094°55'0 0.0
2017-Dec-11 02:30N 29°42' W 094°55'0 0.1
2017-Dec-11 02:00N 29°42' W 094°55'0 0.0
2017-Dec-10 20:07N 29°42' W 094°55'0 2.8
2017-Dec-10 20:00N 29°42' W 094°55'1 2.3
2017-Dec-10 19:30N 29°43' W 094°56'1 0.1
2017-Dec-10 09:22N 29°43' W 094°56'0 0.0
2017-Dec-09 00:16N 29°43' W 094°57'1 3.7
2017-Dec-09 00:00N 29°42' W 094°56'1 1.2
2017-Dec-08 23:23N 29°42' W 094°55'0 0.0
2017-Dec-08 22:59N 29°42' W 094°55'0 0.0
2017-Dec-08 22:29N 29°42' W 094°55'0 0.0
2017-Dec-08 19:45N 29°42' W 094°55'0 0.0
2017-Dec-08 19:30N 29°42' W 094°55'0 0.0
2017-Dec-08 17:53N 29°42' W 094°55'0 0.0
2017-Dec-08 16:30N 29°42' W 094°55'0 0.0
2017-Dec-08 15:28N 29°42' W 094°55'0 0.0
2017-Dec-08 10:36N 29°42' W 094°55'0 0.0
2017-Dec-08 00:22N 29°42' W 094°55'0 0.1
2017-Dec-08 00:01N 29°42' W 094°55'1 2.0
2017-Dec-07 23:30N 29°41' W 094°56'1 2.3
2017-Dec-07 22:59N 29°41' W 094°57'2 3.7
2017-Dec-07 22:31N 29°41' W 094°59'3 6.0
2017-Dec-07 22:01N 29°43' W 095°01'3 6.1
2017-Dec-07 21:30N 29°45' W 095°04'4 5.3
2017-Dec-07 20:50N 29°44' W 095°08'2 6.4
2017-Dec-07 20:27N 29°45' W 095°11'3 5.9
2017-Dec-07 19:55N 29°43' W 095°14'2 4.7
2017-Dec-07 19:30N 29°44' W 095°16'1 1.4
2017-Dec-07 18:59N 29°44' W 095°17'0 0.0
2017-Dec-07 18:29N 29°44' W 095°17'0 0.0
2017-Dec-07 17:59N 29°44' W 095°17'0 0.0
2017-Dec-07 17:31N 29°44' W 095°17'0 0.0
2017-Dec-07 17:00N 29°44' W 095°17'0 0.0
2017-Dec-07 13:53N 29°44' W 095°17'0 0.0
2017-Dec-07 13:14N 29°44' W 095°17'0 0.0
2017-Dec-07 12:58N 29°44' W 095°17'0 0.0
2017-Dec-07 12:29N 29°44' W 095°17'0 0.0
2017-Dec-07 11:58N 29°44' W 095°17'0 0.0
2017-Dec-07 11:30N 29°44' W 095°17'0 0.0
2017-Dec-07 11:00N 29°44' W 095°17'0 0.0
2017-Dec-07 10:30N 29°44' W 095°17'0 0.0
2017-Dec-07 10:00N 29°44' W 095°17'0 0.0
2017-Dec-07 09:30N 29°44' W 095°17'0 0.0
2017-Dec-07 09:00N 29°44' W 095°17'0 0.0
2017-Dec-07 08:30N 29°44' W 095°17'0 0.0
2017-Dec-07 08:00N 29°44' W 095°17'0 0.0
2017-Dec-07 07:30N 29°44' W 095°17'0 0.0
2017-Dec-07 07:00N 29°44' W 095°17'0 0.0
2017-Dec-07 06:28N 29°44' W 095°17'0 0.0
2017-Dec-07 05:57N 29°44' W 095°17'0 0.0
2017-Dec-07 05:27N 29°44' W 095°17'0 0.0
2017-Dec-07 04:31N 29°44' W 095°17'0 0.0
2017-Dec-07 04:30N 29°44' W 095°17'2 4.0
2017-Dec-07 04:00N 29°43' W 095°15'3 6.2
2017-Dec-07 03:30N 29°45' W 095°12'3 6.4
2017-Dec-07 03:00N 29°44' W 095°08'3 6.2
2017-Dec-07 02:28N 29°46' W 095°04'3 6.5
2017-Dec-07 01:57N 29°44' W 095°01'3 5.9
2017-Dec-07 01:30N 29°42' W 094°59'2 4.6
2017-Dec-07 01:00N 29°41' W 094°57'1 2.3
2017-Dec-07 00:30N 29°41' W 094°56'1 2.2
2017-Dec-07 00:00N 29°42' W 094°55'0 0.0
2017-Dec-06 23:30N 29°42' W 094°55'0 0.0
2017-Dec-06 23:00N 29°42' W 094°55'0 0.0
2017-Dec-06 22:30N 29°42' W 094°55'0 0.3
2017-Dec-06 21:54N 29°42' W 094°55'1 1.5
2017-Dec-06 21:29N 29°42' W 094°55'1 1.4
2017-Dec-06 21:00N 29°43' W 094°56'  

Dump ship's entire track history